Time;durP1;ratioP1;P1;durP2;ratioP2;P2;SDS_P1;SDS_P2;PMS_P1;PMS_P2;Temp;Humidity;BMP_temperature;BMP_pressure;BME280_temperature;BME280_humidity;BME280_pressure;Samples;Min_cycle;Max_cycle;Signal;HPM_P1;HPM_P2
2023/06/29 00:00:20;;;;;;;4.50;4.20;;;16.20;69.10;;;;;;6232442;28;20658;-82
2023/06/29 00:03:24;;;;;;;4.60;4.30;;;16.10;69.20;;;;;;6232473;28;20257;-81
2023/06/29 00:06:28;;;;;;;4.97;4.57;;;16.10;69.40;;;;;;6240258;28;20353;-81
2023/06/29 00:09:31;;;;;;;5.03;4.73;;;16.10;69.40;;;;;;6237846;28;20237;-82
2023/06/29 00:12:39;;;;;;;5.20;4.90;;;16.10;69.40;;;;;;6240001;28;20577;-81
2023/06/29 00:15:42;;;;;;;5.03;4.70;;;16.10;69.40;;;;;;6231647;28;20239;-81
2023/06/29 00:18:46;;;;;;;5.17;4.87;;;16.10;69.30;;;;;;6226735;28;20250;-81
2023/06/29 00:21:49;;;;;;;4.67;4.37;;;16.10;69.10;;;;;;6238590;28;20235;-82
2023/06/29 00:24:56;;;;;;;5.20;4.80;;;16.10;69.20;;;;;;6224498;28;20894;-82
2023/06/29 00:28:01;;;;;;;4.97;4.73;;;16.10;69.30;;;;;;6227872;28;20254;-80
2023/06/29 00:31:04;;;;;;;4.97;4.67;;;16.10;69.40;;;;;;6239306;28;20235;-81
2023/06/29 00:34:08;;;;;;;5.10;4.80;;;16.10;69.50;;;;;;6230638;28;20237;-80
2023/06/29 00:37:11;;;;;;;4.37;4.23;;;16.10;69.50;;;;;;6232083;28;20242;-81
2023/06/29 00:40:14;;;;;;;4.20;4.00;;;16.00;69.60;;;;;;6239532;28;20237;-81
2023/06/29 00:43:20;;;;;;;4.57;4.27;;;16.00;69.70;;;;;;6236426;28;20288;-81
2023/06/29 00:46:24;;;;;;;5.07;4.77;;;16.00;69.70;;;;;;6232844;28;20239;-80
2023/06/29 00:49:28;;;;;;;4.50;4.37;;;16.00;69.80;;;;;;6229195;28;20742;-81
2023/06/29 00:52:31;;;;;;;4.53;4.23;;;16.00;69.80;;;;;;6234459;28;20238;-80
2023/06/29 00:55:36;;;;;;;5.47;5.07;;;15.90;69.90;;;;;;6240449;28;20242;-81
2023/06/29 00:58:41;;;;;;;4.53;4.30;;;15.80;70.00;;;;;;6222784;28;20246;-81
2023/06/29 01:01:45;;;;;;;4.80;4.60;;;15.80;69.90;;;;;;6238308;28;20245;-80
2023/06/29 01:04:53;;;;;;;4.50;4.30;;;15.80;70.00;;;;;;6234650;28;20289;-81
2023/06/29 01:08:01;;;;;;;4.53;4.37;;;15.80;70.20;;;;;;6240080;28;20245;-81
2023/06/29 01:11:04;;;;;;;4.23;4.13;;;15.80;70.50;;;;;;6239189;28;20317;-80
2023/06/29 01:14:12;;;;;;;4.77;4.47;;;15.80;70.50;;;;;;6231165;28;20646;-80
2023/06/29 01:17:19;;;;;;;4.43;4.23;;;15.70;70.70;;;;;;6222839;28;20231;-80
2023/06/29 01:20:25;;;;;;;4.53;4.33;;;15.70;70.90;;;;;;6231220;28;20259;-81
2023/06/29 01:23:36;;;;;;;4.83;4.53;;;15.60;71.10;;;;;;6234014;28;20241;-80
2023/06/29 01:26:41;;;;;;;4.83;4.60;;;15.60;71.10;;;;;;6222000;28;20240;-81
2023/06/29 01:29:44;;;;;;;5.33;5.13;;;15.60;71.20;;;;;;6222313;28;20239;-81
2023/06/29 01:32:48;;;;;;;4.90;4.77;;;15.60;71.20;;;;;;6233960;28;20916;-80
2023/06/29 01:35:59;;;;;;;4.83;4.63;;;15.50;71.40;;;;;;6221845;28;20227;-79
2023/06/29 01:39:06;;;;;;;5.57;5.17;;;15.50;71.50;;;;;;6234227;28;20317;-81
2023/06/29 01:42:12;;;;;;;6.23;5.70;;;15.50;71.60;;;;;;6241348;28;20243;-79
2023/06/29 01:45:17;;;;;;;5.67;5.37;;;15.50;71.60;;;;;;6242032;28;20246;-81
2023/06/29 01:48:21;;;;;;;5.30;4.90;;;15.50;71.60;;;;;;6237020;28;20384;-81
2023/06/29 01:51:24;;;;;;;5.33;5.03;;;15.40;71.80;;;;;;6228473;28;20304;-80
2023/06/29 01:54:27;;;;;;;6.03;5.60;;;15.40;71.90;;;;;;6235890;28;20282;-79
2023/06/29 01:57:32;;;;;;;5.93;5.63;;;15.40;72.20;;;;;;6240531;28;20241;-79
2023/06/29 02:00:36;;;;;;;6.47;6.07;;;15.40;72.20;;;;;;6225583;28;20257;-82
2023/06/29 02:03:40;;;;;;;5.40;5.20;;;15.30;72.20;;;;;;6201436;28;20227;-81
2023/06/29 02:06:44;;;;;;;5.53;5.23;;;15.30;72.10;;;;;;6231464;28;20239;-80
2023/06/29 02:09:47;;;;;;;5.83;5.43;;;15.30;72.20;;;;;;6235992;28;20235;-80
2023/06/29 02:12:51;;;;;;;6.27;5.87;;;15.30;72.20;;;;;;6233665;28;20242;-81
2023/06/29 02:15:54;;;;;;;5.63;5.23;;;15.30;72.30;;;;;;6241654;28;20710;-80
2023/06/29 02:18:58;;;;;;;5.63;5.33;;;15.30;72.50;;;;;;6239521;28;20231;-80
2023/06/29 02:22:01;;;;;;;6.07;5.60;;;15.20;72.50;;;;;;6227161;28;20836;-81
2023/06/29 02:25:06;;;;;;;6.27;5.87;;;15.20;72.60;;;;;;6239997;28;20292;-81
2023/06/29 02:28:11;;;;;;;6.30;6.00;;;15.20;72.70;;;;;;6239477;28;20235;-79
2023/06/29 02:31:14;;;;;;;5.43;5.23;;;15.20;72.70;;;;;;6222866;28;20246;-80
2023/06/29 02:34:18;;;;;;;6.33;5.83;;;15.20;73.00;;;;;;6231118;28;20254;-80
2023/06/29 02:37:21;;;;;;;6.00;5.60;;;15.20;73.00;;;;;;6233440;28;20245;-83
2023/06/29 02:40:24;;;;;;;5.67;5.37;;;15.10;73.10;;;;;;6231912;28;20235;-79
2023/06/29 02:43:28;;;;;;;5.73;5.43;;;15.00;73.20;;;;;;6243758;28;20246;-81
2023/06/29 02:46:32;;;;;;;6.80;6.40;;;15.00;73.20;;;;;;6249407;28;20373;-81
2023/06/29 02:49:35;;;;;;;6.13;5.83;;;15.00;73.20;;;;;;6252290;28;20231;-81
2023/06/29 02:52:38;;;;;;;6.40;6.00;;;15.00;73.40;;;;;;6240117;28;20274;-81
2023/06/29 02:55:41;;;;;;;7.00;6.40;;;15.00;73.50;;;;;;6235909;28;20269;-82
2023/06/29 02:58:48;;;;;;;5.90;5.60;;;15.00;73.60;;;;;;6244393;28;20231;-81
2023/06/29 03:01:51;;;;;;;6.13;5.83;;;15.00;73.70;;;;;;6237452;28;20235;-81
2023/06/29 03:04:54;;;;;;;5.73;5.50;;;15.00;73.80;;;;;;6223513;28;20230;-79
2023/06/29 03:07:57;;;;;;;6.33;6.03;;;15.00;73.90;;;;;;6228120;28;20314;-82
2023/06/29 03:11:00;;;;;;;6.77;6.37;;;15.00;74.00;;;;;;6238370;28;20242;-81
2023/06/29 03:14:05;;;;;;;5.63;5.33;;;15.00;74.10;;;;;;6239533;28;20773;-81
2023/06/29 03:17:08;;;;;;;6.43;5.93;;;15.00;74.10;;;;;;6231632;28;20236;-81
2023/06/29 03:20:13;;;;;;;6.57;6.03;;;15.00;74.00;;;;;;6231865;28;20270;-80
2023/06/29 03:23:16;;;;;;;5.13;4.83;;;15.00;73.90;;;;;;6233158;28;20247;-81
2023/06/29 03:26:20;;;;;;;5.90;5.60;;;15.10;73.70;;;;;;6225420;28;20832;-81
2023/06/29 03:29:24;;;;;;;5.17;4.97;;;15.10;73.60;;;;;;6236148;28;20292;-81
2023/06/29 03:32:27;;;;;;;5.70;5.40;;;15.20;73.50;;;;;;6222136;28;20239;-82
2023/06/29 03:35:30;;;;;;;6.10;5.57;;;15.20;73.50;;;;;;6236942;28;20245;-79
2023/06/29 03:38:34;;;;;;;5.83;5.43;;;15.20;73.50;;;;;;6232072;28;20281;-82
2023/06/29 03:41:37;;;;;;;5.93;5.67;;;15.20;73.50;;;;;;6234165;28;20235;-82
2023/06/29 03:44:41;;;;;;;5.70;5.40;;;15.20;73.50;;;;;;6238164;28;20237;-81
2023/06/29 03:47:45;;;;;;;5.67;5.37;;;15.30;73.50;;;;;;6217901;28;20708;-80
2023/06/29 03:50:48;;;;;;;6.10;5.60;;;15.30;73.40;;;;;;6225582;28;20245;-81
2023/06/29 03:53:52;;;;;;;6.10;5.60;;;15.40;73.30;;;;;;6235829;28;20242;-83
2023/06/29 03:56:55;;;;;;;5.70;5.33;;;15.40;73.20;;;;;;6218292;28;20227;-82
2023/06/29 04:00:00;;;;;;;6.20;5.70;;;15.50;73.00;;;;;;6233214;28;20821;-81
2023/06/29 04:03:04;;;;;;;5.30;5.03;;;15.50;73.00;;;;;;6229454;28;20337;-80
2023/06/29 04:06:07;;;;;;;5.47;5.17;;;15.60;72.90;;;;;;6219726;28;20245;-81
2023/06/29 04:09:12;;;;;;;5.83;5.33;;;15.60;72.90;;;;;;6224757;28;20227;-81
2023/06/29 04:12:15;;;;;;;5.97;5.67;;;15.70;72.90;;;;;;6217693;28;20373;-82
2023/06/29 04:15:19;;;;;;;6.03;5.20;;;15.80;73.00;;;;;;6217584;28;20226;-81
2023/06/29 04:18:22;;;;;;;6.53;6.13;;;16.00;73.00;;;;;;6234562;28;20233;-80
2023/06/29 04:21:26;;;;;;;6.73;6.23;;;16.20;72.70;;;;;;6225686;28;20235;-81
2023/06/29 04:24:29;;;;;;;6.03;5.73;;;16.40;72.10;;;;;;6227994;28;20273;-82
2023/06/29 04:27:34;;;;;;;4.97;4.77;;;16.60;71.50;;;;;;6234589;28;20234;-81
2023/06/29 04:30:40;;;;;;;5.57;5.33;;;16.80;71.10;;;;;;6234764;28;20325;-81
2023/06/29 04:33:44;;;;;;;5.23;4.93;;;16.90;70.70;;;;;;6229642;28;20890;-82
2023/06/29 04:36:48;;;;;;;5.97;5.57;;;17.00;70.30;;;;;;6226316;28;20325;-81
2023/06/29 04:39:51;;;;;;;6.20;5.80;;;17.00;69.20;;;;;;6227567;28;20436;-81
2023/06/29 04:42:55;;;;;;;5.73;5.20;;;17.00;69.40;;;;;;6222756;28;20239;-81
2023/06/29 04:46:03;;;;;;;5.23;5.03;;;17.00;69.20;;;;;;6230890;28;20360;-83
2023/06/29 04:49:09;;;;;;;6.93;5.27;;;17.00;69.00;;;;;;6228954;28;20273;-80
2023/06/29 04:52:12;;;;;;;5.80;5.27;;;17.00;68.90;;;;;;6226539;28;20239;-81
2023/06/29 04:55:15;;;;;;;4.90;4.60;;;17.10;68.70;;;;;;6227420;28;20234;-80
2023/06/29 04:58:19;;;;;;;6.47;5.87;;;17.20;68.60;;;;;;6224927;28;20635;-81
2023/06/29 05:01:23;;;;;;;5.63;5.23;;;17.40;68.10;;;;;;6223688;28;20257;-81
2023/06/29 05:04:26;;;;;;;6.13;5.53;;;17.60;67.70;;;;;;6230949;28;20666;-84
2023/06/29 05:07:29;;;;;;;6.03;5.63;;;17.90;66.80;;;;;;6220678;28;20872;-81
2023/06/29 05:10:33;;;;;;;6.50;6.10;;;18.20;66.10;;;;;;6228780;28;20240;-81
2023/06/29 05:13:36;;;;;;;5.23;4.87;;;18.60;66.00;;;;;;6239881;28;20239;-81
2023/06/29 05:16:40;;;;;;;5.30;4.90;;;19.00;65.20;;;;;;6238377;28;20668;-79
2023/06/29 05:19:44;;;;;;;5.73;4.50;;;19.40;63.80;;;;;;6239993;28;20249;-82
2023/06/29 05:22:47;;;;;;;6.80;4.90;;;19.70;63.10;;;;;;6230660;28;20874;-80
2023/06/29 05:25:50;;;;;;;4.77;4.57;;;20.20;62.00;;;;;;6235951;28;20308;-76
2023/06/29 05:28:54;;;;;;;4.77;4.47;;;20.50;61.60;;;;;;6238425;28;20246;-77
2023/06/29 05:32:09;;;;;;;4.87;4.57;;;20.70;61.10;;;;;;6223557;28;21749;-77
2023/06/29 05:35:13;;;;;;;5.27;4.87;;;21.10;60.40;;;;;;6228539;28;21066;-75
2023/06/29 05:38:16;;;;;;;5.47;5.17;;;21.40;59.40;;;;;;6233100;28;20599;-76
2023/06/29 05:41:19;;;;;;;4.87;4.57;;;21.80;58.40;;;;;;6225002;28;20239;-76
2023/06/29 05:44:22;;;;;;;5.33;5.00;;;22.00;57.60;;;;;;6222326;28;20292;-76
2023/06/29 05:47:27;;;;;;;4.40;4.00;;;21.80;58.10;;;;;;6234387;28;20243;-76
2023/06/29 05:50:30;;;;;;;4.53;4.10;;;21.50;59.30;;;;;;6222085;28;20250;-75
2023/06/29 05:53:33;;;;;;;5.40;4.80;;;21.40;59.20;;;;;;6235204;28;20235;-78
2023/06/29 05:56:36;;;;;;;5.03;4.57;;;21.50;59.20;;;;;;6238903;28;20770;-77
2023/06/29 05:59:39;;;;;;;5.20;4.00;;;21.90;58.70;;;;;;6234396;28;20276;-75
2023/06/29 06:02:44;;;;;;;4.20;3.90;;;22.10;58.90;;;;;;6224768;28;20258;-75
2023/06/29 06:05:47;;;;;;;6.77;4.40;;;22.20;59.10;;;;;;6226540;28;20227;-75
2023/06/29 06:08:50;;;;;;;5.33;4.83;;;22.20;58.60;;;;;;6231411;28;20248;-76
2023/06/29 06:11:55;;;;;;;5.23;4.83;;;21.90;58.50;;;;;;6216941;28;20396;-77
2023/06/29 06:14:58;;;;;;;7.03;4.70;;;21.90;59.20;;;;;;6235456;28;20367;-76
2023/06/29 06:18:03;;;;;;;5.40;4.83;;;22.00;58.90;;;;;;6237291;28;20315;-77
2023/06/29 06:21:07;;;;;;;4.90;4.47;;;22.60;58.80;;;;;;6228629;28;20232;-75
2023/06/29 06:24:11;;;;;;;6.97;4.43;;;22.80;57.80;;;;;;6225119;28;20294;-75
2023/06/29 06:27:14;;;;;;;4.17;3.87;;;23.10;57.40;;;;;;6222378;28;20314;-75
2023/06/29 06:30:17;;;;;;;5.00;4.60;;;23.50;56.40;;;;;;6224601;28;20245;-76
2023/06/29 06:33:22;;;;;;;6.13;3.90;;;23.80;55.70;;;;;;6238544;28;20242;-81
2023/06/29 06:36:29;;;;;;;4.07;3.87;;;23.80;54.60;;;;;;6231739;28;20242;-80
2023/06/29 06:39:32;;;;;;;4.67;4.27;;;23.90;54.30;;;;;;6260120;28;20246;-80
2023/06/29 06:42:36;;;;;;;4.37;4.17;;;24.00;54.10;;;;;;6260520;28;20245;-81
2023/06/29 06:45:39;;;;;;;3.97;3.67;;;24.20;54.50;;;;;;6258154;28;20249;-80
2023/06/29 06:48:43;;;;;;;6.20;3.50;;;24.60;54.00;;;;;;6259193;28;20304;-81
2023/06/29 06:51:46;;;;;;;4.00;3.70;;;24.60;52.90;;;;;;6257302;28;20314;-79
2023/06/29 06:54:50;;;;;;;4.53;4.13;;;24.60;53.00;;;;;;6261260;28;20346;-81
2023/06/29 06:57:55;;;;;;;4.23;3.90;;;25.00;51.80;;;;;;6258886;28;20316;-81
2023/06/29 07:00:58;;;;;;;3.50;3.40;;;25.60;51.50;;;;;;6263080;28;20324;-80
2023/06/29 07:04:03;;;;;;;4.10;3.70;;;25.40;51.00;;;;;;6254180;28;20740;-81
2023/06/29 07:07:08;;;;;;;10.13;6.87;;;25.30;52.20;;;;;;6253507;28;20246;-82
2023/06/29 07:10:11;;;;;;;3.77;3.40;;;25.30;51.80;;;;;;6266556;28;20234;-82
2023/06/29 07:13:14;;;;;;;3.70;3.50;;;25.00;51.20;;;;;;6266974;28;20375;-82
2023/06/29 07:16:17;;;;;;;3.83;3.53;;;24.60;52.10;;;;;;6251937;28;20226;-81
2023/06/29 07:19:22;;;;;;;4.60;4.30;;;24.20;52.40;;;;;;6252094;28;20230;-82
2023/06/29 07:22:28;;;;;;;4.20;3.80;;;23.90;52.60;;;;;;6253497;28;20321;-80
2023/06/29 07:25:34;;;;;;;3.70;3.20;;;23.50;53.40;;;;;;6262802;28;20371;-81
2023/06/29 07:28:38;;;;;;;3.43;3.23;;;23.00;54.00;;;;;;6263156;28;20329;-82
2023/06/29 07:31:41;;;;;;;3.80;3.50;;;23.10;55.10;;;;;;6262106;28;20404;-79
2023/06/29 07:34:46;;;;;;;3.00;2.90;;;22.70;54.30;;;;;;6258254;28;20760;-80
2023/06/29 07:37:49;;;;;;;3.70;3.37;;;22.60;55.00;;;;;;6264771;28;20241;-80
2023/06/29 07:40:52;;;;;;;3.60;3.47;;;22.80;54.70;;;;;;6256978;28;20246;-81
2023/06/29 07:43:57;;;;;;;3.50;3.30;;;22.70;54.60;;;;;;6257157;28;20234;-81
2023/06/29 07:47:03;;;;;;;3.03;2.83;;;22.80;54.60;;;;;;6263801;28;20737;-80
2023/06/29 07:50:10;;;;;;;3.27;3.13;;;22.90;54.70;;;;;;6255673;28;20238;-79
2023/06/29 07:53:13;;;;;;;2.63;2.53;;;22.90;54.10;;;;;;6260422;28;20259;-82
2023/06/29 07:56:17;;;;;;;3.10;3.00;;;22.60;54.50;;;;;;6262488;28;20785;-80
2023/06/29 07:59:20;;;;;;;3.37;3.10;;;22.50;55.40;;;;;;6250975;28;20253;-80
2023/06/29 08:02:23;;;;;;;3.60;3.30;;;22.60;54.60;;;;;;6247076;28;20313;-80
2023/06/29 08:05:29;;;;;;;3.13;3.03;;;22.70;55.30;;;;;;6234728;28;20237;-81
2023/06/29 08:08:35;;;;;;;3.00;2.90;;;22.50;54.50;;;;;;6235761;28;20228;-80
2023/06/29 08:11:39;;;;;;;3.00;2.80;;;22.40;54.90;;;;;;6256321;28;20303;-80
2023/06/29 08:14:43;;;;;;;3.77;3.47;;;22.50;55.20;;;;;;6265192;28;20241;-80
2023/06/29 08:17:46;;;;;;;3.57;3.37;;;22.50;55.40;;;;;;6253589;28;20243;-81
2023/06/29 08:20:51;;;;;;;3.63;3.23;;;22.70;55.40;;;;;;6237777;28;20245;-81
2023/06/29 08:23:54;;;;;;;3.00;2.80;;;22.80;55.50;;;;;;6236868;28;20300;-81
2023/06/29 08:26:59;;;;;;;2.80;2.70;;;22.80;54.70;;;;;;6233797;28;20243;-80
2023/06/29 08:30:06;;;;;;;2.53;2.43;;;23.00;54.30;;;;;;6233109;28;20250;-81
2023/06/29 08:33:10;;;;;;;3.13;2.60;;;23.10;54.00;;;;;;6259381;28;20932;-79
2023/06/29 08:36:15;;;;;;;3.20;2.67;;;22.70;53.70;;;;;;6255887;28;20237;-80
2023/06/29 08:39:21;;;;;;;2.50;2.40;;;22.80;53.60;;;;;;6260560;28;20317;-82
2023/06/29 08:42:24;;;;;;;2.90;2.80;;;22.80;54.40;;;;;;6257253;28;20320;-80
2023/06/29 08:45:27;;;;;;;2.60;2.50;;;22.70;54.40;;;;;;6265630;28;20325;-79
2023/06/29 08:48:32;;;;;;;2.97;2.77;;;22.50;54.10;;;;;;6232045;28;20234;-79
2023/06/29 08:51:40;;;;;;;4.73;3.13;;;22.30;55.30;;;;;;6246192;28;20231;-81
2023/06/29 08:54:44;;;;;;;3.97;3.53;;;22.50;55.10;;;;;;6223607;28;20794;-82
2023/06/29 08:57:47;;;;;;;5.27;3.40;;;22.60;56.10;;;;;;6225685;28;20242;-80
2023/06/29 09:00:51;;;;;;;4.17;3.87;;;22.70;56.30;;;;;;6235883;28;20722;-81
2023/06/29 09:03:55;;;;;;;2.93;2.83;;;22.80;56.50;;;;;;6229840;28;20231;-80
2023/06/29 09:07:03;;;;;;;3.73;3.53;;;22.60;56.00;;;;;;6228597;28;20239;-80
2023/06/29 09:10:08;;;;;;;2.27;2.20;;;22.60;55.80;;;;;;6228489;28;20231;-80
2023/06/29 09:13:11;;;;;;;2.60;2.50;;;22.60;54.70;;;;;;6236504;28;20258;-80
2023/06/29 09:16:17;;;;;;;4.33;2.60;;;22.90;55.70;;;;;;6238896;28;20234;-81
2023/06/29 09:19:24;;;;;;;2.60;2.50;;;23.10;55.20;;;;;;6234640;28;20746;-80
2023/06/29 09:22:32;;;;;;;3.40;2.27;;;23.30;54.60;;;;;;6226955;28;20803;-81
2023/06/29 09:25:39;;;;;;;4.33;3.00;;;23.30;54.40;;;;;;6235858;28;20243;-81
2023/06/29 09:28:46;;;;;;;2.97;2.80;;;23.30;54.50;;;;;;6240022;28;20377;-79
2023/06/29 09:31:56;;;;;;;3.03;2.83;;;23.20;53.70;;;;;;6229370;28;20234;-79
2023/06/29 09:35:10;;;;;;;2.57;2.57;;;23.30;53.80;;;;;;6233074;28;20270;-79
2023/06/29 09:38:16;;;;;;;3.23;2.83;;;23.40;53.70;;;;;;6222964;28;20808;-80
2023/06/29 09:41:20;;;;;;;2.80;2.80;;;23.00;54.30;;;;;;6237530;28;20301;-81
2023/06/29 09:44:26;;;;;;;4.07;3.13;;;22.80;55.00;;;;;;6230327;28;20615;-79
2023/06/29 09:47:30;;;;;;;3.30;3.03;;;23.00;56.00;;;;;;6233692;28;20231;-80
2023/06/29 09:50:36;;;;;;;3.23;3.03;;;23.20;55.00;;;;;;6227550;28;20286;-80
2023/06/29 09:53:41;;;;;;;3.27;3.00;;;23.20;54.90;;;;;;6231597;28;20232;-79
2023/06/29 09:56:45;;;;;;;3.20;3.10;;;23.30;54.60;;;;;;6231941;28;21013;-81
2023/06/29 09:59:49;;;;;;;3.47;3.27;;;23.60;54.30;;;;;;6243021;28;20310;-80
2023/06/29 10:02:53;;;;;;;3.70;2.93;;;23.90;54.80;;;;;;6232017;28;20254;-81
2023/06/29 10:06:04;;;;;;;3.50;3.30;;;23.70;54.70;;;;;;6243288;28;20249;-79
2023/06/29 10:09:10;;;;;;;3.47;3.20;;;23.60;54.80;;;;;;6245944;28;20247;-80
2023/06/29 10:12:14;;;;;;;3.20;2.80;;;23.80;54.70;;;;;;6238021;28;20256;-79
2023/06/29 10:15:21;;;;;;;4.20;3.03;;;23.60;54.50;;;;;;6255891;28;20234;-79
2023/06/29 10:18:30;;;;;;;3.17;3.07;;;23.70;54.30;;;;;;6236117;28;20234;-82
2023/06/29 10:21:33;;;;;;;3.60;3.37;;;24.00;53.80;;;;;;6237515;28;20238;-81
2023/06/29 10:24:41;;;;;;;3.30;3.07;;;24.00;54.20;;;;;;6239386;28;20237;-80
2023/06/29 10:27:46;;;;;;;3.37;3.17;;;24.00;54.00;;;;;;6233325;28;20751;-81
2023/06/29 10:30:51;;;;;;;2.93;2.83;;;24.20;54.40;;;;;;6232736;28;20239;-79
2023/06/29 10:33:54;;;;;;;3.43;3.23;;;24.50;53.00;;;;;;6223322;28;20235;-79
2023/06/29 10:37:00;;;;;;;2.83;2.83;;;24.50;53.50;;;;;;6228918;28;20235;-80
2023/06/29 10:40:14;;;;;;;4.20;3.57;;;24.60;53.20;;;;;;6238490;28;20316;-80
2023/06/29 10:43:17;;;;;;;4.43;4.13;;;24.40;54.20;;;;;;6227351;28;20245;-81
2023/06/29 10:46:41;;;;;;;3.67;3.47;;;24.30;53.70;;;;;;6236685;28;20253;-80
2023/06/29 10:49:45;;;;;;;3.57;3.30;;;24.30;53.30;;;;;;6239851;28;20230;-80
2023/06/29 10:52:49;;;;;;;4.13;3.93;;;24.50;53.40;;;;;;6244311;28;20242;-80
2023/06/29 10:55:56;;;;;;;4.33;3.93;;;24.50;52.80;;;;;;6244457;28;20234;-79
2023/06/29 10:59:00;;;;;;;3.97;3.67;;;24.60;52.10;;;;;;6267834;28;20242;-79
2023/06/29 11:02:04;;;;;;;4.47;3.37;;;25.00;52.90;;;;;;6244142;28;20238;-79
2023/06/29 11:05:11;;;;;;;4.13;3.87;;;25.20;51.90;;;;;;6253777;28;20292;-79
2023/06/29 11:08:15;;;;;;;4.10;3.90;;;25.30;51.50;;;;;;6257089;28;20335;-79
2023/06/29 11:11:19;;;;;;;4.23;3.93;;;25.50;52.00;;;;;;6230935;28;20254;-79
2023/06/29 11:14:22;;;;;;;4.83;3.93;;;25.40;51.50;;;;;;6227557;28;20253;-79
2023/06/29 11:17:26;;;;;;;3.60;3.40;;;25.00;52.70;;;;;;6230874;28;20341;-81
2023/06/29 11:20:29;;;;;;;4.23;4.03;;;25.00;52.20;;;;;;6217901;28;20270;-80
2023/06/29 11:23:32;;;;;;;3.77;3.47;;;25.40;51.60;;;;;;6228538;28;20238;-79
2023/06/29 11:26:36;;;;;;;3.90;3.70;;;25.60;52.00;;;;;;6237936;28;20226;-79
2023/06/29 11:29:41;;;;;;;3.90;3.70;;;25.80;50.80;;;;;;6232996;28;20848;-79
2023/06/29 11:32:44;;;;;;;4.57;4.33;;;25.80;51.30;;;;;;6230209;28;20306;-79
2023/06/29 11:35:47;;;;;;;4.47;4.27;;;25.70;51.20;;;;;;6232118;28;20236;-80
2023/06/29 11:39:08;;;;;;;4.47;4.27;;;25.60;52.20;;;;;;6238157;28;20234;-79
2023/06/29 11:42:19;;;;;;;4.23;3.93;;;25.60;50.70;;;;;;6217822;28;20264;-80
2023/06/29 11:45:22;;;;;;;3.97;3.73;;;25.30;51.60;;;;;;6232088;28;20900;-80
2023/06/29 11:48:29;;;;;;;4.13;3.93;;;25.50;52.20;;;;;;6216796;28;20297;-79
2023/06/29 11:51:34;;;;;;;4.40;4.20;;;25.90;50.80;;;;;;6243138;28;20231;-80
2023/06/29 11:54:38;;;;;;;4.13;4.03;;;26.00;50.30;;;;;;6221426;28;20228;-79
2023/06/29 11:57:50;;;;;;;4.47;4.30;;;26.10;50.00;;;;;;6231935;28;20750;-80
2023/06/29 12:00:56;;;;;;;4.40;4.20;;;26.00;50.70;;;;;;6235286;28;20247;-78
2023/06/29 12:04:00;;;;;;;4.37;4.17;;;25.60;51.20;;;;;;6237801;28;20231;-80
2023/06/29 12:07:04;;;;;;;4.20;4.00;;;25.80;50.40;;;;;;6234889;28;20243;-79
2023/06/29 12:10:10;;;;;;;4.23;4.07;;;26.00;51.10;;;;;;6227271;28;20237;-80
2023/06/29 12:13:14;;;;;;;4.40;4.10;;;26.40;51.20;;;;;;6224617;28;20234;-80
2023/06/29 12:16:18;;;;;;;4.00;3.90;;;26.40;50.50;;;;;;6231279;28;20238;-80
2023/06/29 12:19:28;;;;;;;4.33;4.03;;;25.90;50.80;;;;;;6225353;28;20290;-80
2023/06/29 12:22:32;;;;;;;4.53;4.30;;;25.90;50.90;;;;;;6226334;28;20294;-82
2023/06/29 12:25:46;;;;;;;4.60;4.40;;;25.80;50.90;;;;;;6237051;28;20888;-79
2023/06/29 12:28:51;;;;;;;4.17;3.93;;;25.60;52.00;;;;;;6225708;28;20342;-80
2023/06/29 12:31:59;;;;;;;4.77;4.47;;;25.40;51.50;;;;;;6236700;28;20235;-78
2023/06/29 12:35:02;;;;;;;4.20;3.90;;;25.40;52.00;;;;;;6237358;28;20253;-80
2023/06/29 12:38:07;;;;;;;4.10;3.70;;;25.40;51.60;;;;;;6231559;28;20234;-80
2023/06/29 12:41:10;;;;;;;4.47;4.07;;;25.70;51.90;;;;;;6235603;28;20263;-78
2023/06/29 12:44:15;;;;;;;4.33;4.03;;;25.80;51.70;;;;;;6229286;28;20246;-81
2023/06/29 12:47:19;;;;;;;3.50;3.40;;;26.10;51.80;;;;;;6230928;28;20636;-80
2023/06/29 12:50:22;;;;;;;3.70;3.50;;;26.20;51.80;;;;;;6236445;28;20273;-82
2023/06/29 12:53:25;;;;;;;4.03;3.67;;;26.40;50.90;;;;;;6222518;28;20247;-80
2023/06/29 12:56:28;;;;;;;3.90;3.80;;;26.40;50.60;;;;;;6236337;28;20246;-80
2023/06/29 12:59:33;;;;;;;4.23;3.83;;;26.40;50.00;;;;;;6234347;28;20246;-79
2023/06/29 13:02:36;;;;;;;3.70;3.50;;;26.40;51.20;;;;;;6236718;28;20388;-81
2023/06/29 13:05:39;;;;;;;4.23;4.03;;;26.20;50.60;;;;;;6231869;28;20231;-79
2023/06/29 13:08:43;;;;;;;4.43;4.17;;;26.20;51.10;;;;;;6235368;28;20238;-79
2023/06/29 13:11:46;;;;;;;4.93;4.10;;;26.40;51.20;;;;;;6220948;28;20258;-79
2023/06/29 13:14:51;;;;;;;4.37;4.17;;;26.40;50.80;;;;;;6231907;28;20706;-79
2023/06/29 13:17:54;;;;;;;4.20;4.00;;;26.40;50.20;;;;;;6226740;28;20231;-81
2023/06/29 13:20:57;;;;;;;4.67;4.27;;;26.40;50.50;;;;;;6232187;28;20239;-80
2023/06/29 13:24:00;;;;;;;4.73;4.50;;;26.20;50.80;;;;;;6236084;28;20961;-79
2023/06/29 13:27:04;;;;;;;4.23;4.03;;;26.40;51.70;;;;;;6222420;28;20678;-79
2023/06/29 13:30:11;;;;;;;4.00;3.90;;;26.40;50.50;;;;;;6230645;28;20366;-78
2023/06/29 13:33:14;;;;;;;4.43;3.80;;;26.70;50.20;;;;;;6236442;28;20238;-79
2023/06/29 13:36:17;;;;;;;3.80;3.60;;;26.90;50.40;;;;;;6241800;28;20243;-80
2023/06/29 13:39:20;;;;;;;4.30;4.20;;;27.10;50.90;;;;;;6228513;28;20337;-80
2023/06/29 13:42:23;;;;;;;4.20;4.00;;;27.20;50.10;;;;;;6231174;28;20240;-80
2023/06/29 13:45:28;;;;;;;4.23;3.97;;;27.10;50.50;;;;;;6234500;28;20792;-79
2023/06/29 13:48:31;;;;;;;3.87;3.77;;;27.30;49.00;;;;;;6226527;28;20236;-78
2023/06/29 13:51:35;;;;;;;4.60;4.30;;;27.40;49.40;;;;;;6235155;28;20274;-80
2023/06/29 13:54:39;;;;;;;3.67;3.47;;;27.40;49.60;;;;;;6237137;28;21722;-79
2023/06/29 13:57:43;;;;;;;4.53;4.23;;;27.10;49.50;;;;;;6236372;28;20244;-79
2023/06/29 14:00:49;;;;;;;4.53;4.33;;;27.20;50.30;;;;;;6234726;28;20293;-80
2023/06/29 14:03:53;;;;;;;4.77;4.37;;;27.00;50.00;;;;;;6233103;28;20246;-81
2023/06/29 14:06:56;;;;;;;4.60;4.40;;;27.10;50.30;;;;;;6241397;28;20269;-79
2023/06/29 14:09:59;;;;;;;4.67;4.37;;;26.70;49.90;;;;;;6241182;28;20237;-82
2023/06/29 14:13:02;;;;;;;4.67;4.47;;;26.80;50.60;;;;;;6261854;28;20646;-79
2023/06/29 14:16:08;;;;;;;7.27;4.20;;;27.00;51.00;;;;;;6267171;28;20237;-79
2023/06/29 14:19:11;;;;;;;4.50;4.20;;;27.20;51.20;;;;;;6269449;28;20753;-80
2023/06/29 14:22:15;;;;;;;4.03;3.93;;;27.10;50.00;;;;;;6256277;28;20345;-79
2023/06/29 14:25:18;;;;;;;4.87;4.57;;;27.20;49.90;;;;;;6253504;28;20246;-78
2023/06/29 14:28:22;;;;;;;4.47;4.20;;;27.00;50.00;;;;;;6261844;28;20348;-80
2023/06/29 14:31:26;;;;;;;4.60;4.40;;;26.90;50.40;;;;;;6259552;28;20253;-78
2023/06/29 14:34:29;;;;;;;4.60;4.30;;;27.20;50.50;;;;;;6254756;28;20743;-82
2023/06/29 14:37:32;;;;;;;4.30;4.07;;;27.30;49.60;;;;;;6252170;28;20245;-79
2023/06/29 14:40:37;;;;;;;4.37;4.07;;;27.20;50.00;;;;;;6264649;28;20310;-80
2023/06/29 14:43:40;;;;;;;4.93;4.63;;;27.20;49.70;;;;;;6254845;28;20754;-79
2023/06/29 14:46:45;;;;;;;4.20;4.10;;;27.30;50.20;;;;;;6259782;28;20252;-81
2023/06/29 14:49:48;;;;;;;4.70;4.40;;;27.70;49.80;;;;;;6265988;28;20788;-78
2023/06/29 14:52:51;;;;;;;4.57;4.33;;;27.70;49.10;;;;;;6260930;28;20247;-79
2023/06/29 14:56:05;;;;;;;4.83;4.63;;;27.50;50.10;;;;;;6257906;28;20262;-80
2023/06/29 14:59:08;;;;;;;5.23;4.80;;;27.60;50.20;;;;;;6246220;28;20253;-80
2023/06/29 15:02:13;;;;;;;3.80;3.60;;;27.90;49.60;;;;;;6259152;28;20241;-81
2023/06/29 15:05:16;;;;;;;4.40;4.20;;;27.90;48.90;;;;;;6263824;28;20226;-82
2023/06/29 15:08:19;;;;;;;4.57;4.17;;;27.70;49.10;;;;;;6267311;28;20241;-81
2023/06/29 15:11:23;;;;;;;4.30;4.13;;;27.60;48.40;;;;;;6265713;28;20295;-80
2023/06/29 15:14:26;;;;;;;3.93;3.70;;;27.60;49.20;;;;;;6235989;28;20242;-82
2023/06/29 15:17:30;;;;;;;3.43;3.23;;;27.50;49.30;;;;;;6229592;28;20605;-81
2023/06/29 15:20:34;;;;;;;4.40;4.10;;;27.30;49.40;;;;;;6232628;28;20239;-83
2023/06/29 15:23:37;;;;;;;4.37;4.07;;;27.20;49.90;;;;;;6250563;28;20860;-81
2023/06/29 15:26:43;;;;;;;3.83;3.73;;;27.30;49.40;;;;;;6237083;28;20330;-82
2023/06/29 15:29:46;;;;;;;4.67;4.23;;;27.30;49.60;;;;;;6242058;28;20887;-81
2023/06/29 15:32:50;;;;;;;4.00;3.90;;;27.30;49.80;;;;;;6232705;28;20321;-81
2023/06/29 15:35:53;;;;;;;3.60;3.40;;;27.20;49.80;;;;;;6228272;28;20638;-82
2023/06/29 15:38:58;;;;;;;4.10;4.00;;;27.00;49.50;;;;;;6231869;28;20244;-82
2023/06/29 15:42:02;;;;;;;5.60;4.07;;;26.70;49.70;;;;;;6252342;28;20239;-81
2023/06/29 15:45:09;;;;;;;3.80;3.50;;;26.50;50.60;;;;;;6265968;28;20227;-82
2023/06/29 15:48:14;;;;;;;3.77;3.60;;;26.60;50.20;;;;;;6242383;28;20313;-82
2023/06/29 15:51:20;;;;;;;4.03;3.93;;;26.70;50.50;;;;;;6256439;28;20364;-81
2023/06/29 15:54:23;;;;;;;4.33;4.03;;;26.80;50.10;;;;;;6277621;28;20765;-82
2023/06/29 15:57:27;;;;;;;4.80;4.60;;;26.80;50.10;;;;;;6261773;28;20246;-84
2023/06/29 16:00:31;;;;;;;4.40;4.27;;;26.70;50.20;;;;;;6266587;28;20234;-83